sensor_id;sensor_type;location;lat;lon;timestamp;temperature;humidity
47779;DHT22;33538;48.432;11.350;2023-07-24T00:01:48;22.00;63.20
47779;DHT22;33538;48.432;11.350;2023-07-24T00:04:15;21.90;63.40
47779;DHT22;33538;48.432;11.350;2023-07-24T00:06:42;21.90;63.30
47779;DHT22;33538;48.432;11.350;2023-07-24T00:09:10;21.90;63.10
47779;DHT22;33538;48.432;11.350;2023-07-24T00:11:37;22.00;63.30
47779;DHT22;33538;48.432;11.350;2023-07-24T00:14:04;22.00;63.20
47779;DHT22;33538;48.432;11.350;2023-07-24T00:16:30;22.00;63.40
47779;DHT22;33538;48.432;11.350;2023-07-24T00:18:58;22.00;63.40
47779;DHT22;33538;48.432;11.350;2023-07-24T00:21:24;22.00;63.50
47779;DHT22;33538;48.432;11.350;2023-07-24T00:23:51;22.00;63.70
47779;DHT22;33538;48.432;11.350;2023-07-24T00:26:19;22.00;63.80
47779;DHT22;33538;48.432;11.350;2023-07-24T00:28:46;21.90;63.70
47779;DHT22;33538;48.432;11.350;2023-07-24T00:31:13;21.90;63.90
47779;DHT22;33538;48.432;11.350;2023-07-24T00:33:40;21.90;64.00
47779;DHT22;33538;48.432;11.350;2023-07-24T00:36:06;21.80;64.20
47779;DHT22;33538;48.432;11.350;2023-07-24T00:38:33;21.70;64.00
47779;DHT22;33538;48.432;11.350;2023-07-24T00:41:00;21.80;64.10
47779;DHT22;33538;48.432;11.350;2023-07-24T00:43:28;21.90;64.30
47779;DHT22;33538;48.432;11.350;2023-07-24T00:45:56;21.80;64.10
47779;DHT22;33538;48.432;11.350;2023-07-24T00:48:23;21.80;64.00
47779;DHT22;33538;48.432;11.350;2023-07-24T00:50:50;21.80;64.40
47779;DHT22;33538;48.432;11.350;2023-07-24T00:53:17;21.80;64.30
47779;DHT22;33538;48.432;11.350;2023-07-24T00:55:46;21.80;64.20
47779;DHT22;33538;48.432;11.350;2023-07-24T00:58:16;21.80;64.60
47779;DHT22;33538;48.432;11.350;2023-07-24T01:00:44;21.60;64.60
47779;DHT22;33538;48.432;11.350;2023-07-24T01:03:11;21.70;64.30
47779;DHT22;33538;48.432;11.350;2023-07-24T01:05:38;21.70;64.40
47779;DHT22;33538;48.432;11.350;2023-07-24T01:08:05;21.70;64.80
47779;DHT22;33538;48.432;11.350;2023-07-24T01:10:32;21.70;65.00
47779;DHT22;33538;48.432;11.350;2023-07-24T01:13:04;21.70;65.10
47779;DHT22;33538;48.432;11.350;2023-07-24T01:15:33;21.70;65.10
47779;DHT22;33538;48.432;11.350;2023-07-24T01:18:07;21.70;65.40
47779;DHT22;33538;48.432;11.350;2023-07-24T01:20:37;21.60;65.80
47779;DHT22;33538;48.432;11.350;2023-07-24T01:23:29;21.60;65.90
47779;DHT22;33538;48.432;11.350;2023-07-24T01:26:03;21.60;65.80
47779;DHT22;33538;48.432;11.350;2023-07-24T01:28:30;21.60;66.30
47779;DHT22;33538;48.432;11.350;2023-07-24T01:30:57;21.50;66.10
47779;DHT22;33538;48.432;11.350;2023-07-24T01:33:24;21.50;66.30
47779;DHT22;33538;48.432;11.350;2023-07-24T01:35:54;21.50;66.80
47779;DHT22;33538;48.432;11.350;2023-07-24T01:38:24;21.60;67.40
47779;DHT22;33538;48.432;11.350;2023-07-24T01:40:52;21.60;68.00
47779;DHT22;33538;48.432;11.350;2023-07-24T01:43:20;21.60;67.80
47779;DHT22;33538;48.432;11.350;2023-07-24T01:45:47;21.60;67.80
47779;DHT22;33538;48.432;11.350;2023-07-24T01:48:14;21.50;68.00
47779;DHT22;33538;48.432;11.350;2023-07-24T01:50:41;21.30;68.80
47779;DHT22;33538;48.432;11.350;2023-07-24T01:53:08;21.20;70.10
47779;DHT22;33538;48.432;11.350;2023-07-24T01:55:34;21.30;69.50
47779;DHT22;33538;48.432;11.350;2023-07-24T01:58:01;21.40;69.90
47779;DHT22;33538;48.432;11.350;2023-07-24T02:00:29;21.40;69.70
47779;DHT22;33538;48.432;11.350;2023-07-24T02:02:56;21.40;71.10
47779;DHT22;33538;48.432;11.350;2023-07-24T02:05:23;21.40;70.30
47779;DHT22;33538;48.432;11.350;2023-07-24T02:07:50;21.40;70.40
47779;DHT22;33538;48.432;11.350;2023-07-24T02:10:17;21.40;70.20
47779;DHT22;33538;48.432;11.350;2023-07-24T02:12:45;21.30;70.30
47779;DHT22;33538;48.432;11.350;2023-07-24T02:15:12;21.40;70.20
47779;DHT22;33538;48.432;11.350;2023-07-24T02:17:40;21.40;70.20
47779;DHT22;33538;48.432;11.350;2023-07-24T02:20:07;21.40;70.30
47779;DHT22;33538;48.432;11.350;2023-07-24T02:22:34;21.40;70.80
47779;DHT22;33538;48.432;11.350;2023-07-24T02:25:01;21.30;70.90
47779;DHT22;33538;48.432;11.350;2023-07-24T02:27:29;21.30;71.20
47779;DHT22;33538;48.432;11.350;2023-07-24T02:29:56;21.30;71.50
47779;DHT22;33538;48.432;11.350;2023-07-24T02:32:23;21.30;72.10
47779;DHT22;33538;48.432;11.350;2023-07-24T02:34:52;21.30;72.30
47779;DHT22;33538;48.432;11.350;2023-07-24T02:37:19;21.20;72.60
47779;DHT22;33538;48.432;11.350;2023-07-24T02:39:46;21.30;72.90
47779;DHT22;33538;48.432;11.350;2023-07-24T02:42:13;21.30;72.70
47779;DHT22;33538;48.432;11.350;2023-07-24T02:44:39;21.30;73.90
47779;DHT22;33538;48.432;11.350;2023-07-24T02:47:06;21.20;75.00
47779;DHT22;33538;48.432;11.350;2023-07-24T02:49:33;21.20;74.90
47779;DHT22;33538;48.432;11.350;2023-07-24T02:52:01;21.30;75.10
47779;DHT22;33538;48.432;11.350;2023-07-24T02:54:28;21.30;75.60
47779;DHT22;33538;48.432;11.350;2023-07-24T02:56:55;21.30;74.90
47779;DHT22;33538;48.432;11.350;2023-07-24T02:59:22;21.20;76.10
47779;DHT22;33538;48.432;11.350;2023-07-24T03:01:49;21.30;75.30
47779;DHT22;33538;48.432;11.350;2023-07-24T03:04:15;21.60;74.40
47779;DHT22;33538;48.432;11.350;2023-07-24T03:06:42;21.70;74.00
47779;DHT22;33538;48.432;11.350;2023-07-24T03:09:10;21.70;75.70
47779;DHT22;33538;48.432;11.350;2023-07-24T03:11:37;21.60;77.30
47779;DHT22;33538;48.432;11.350;2023-07-24T03:14:04;21.50;78.30
47779;DHT22;33538;48.432;11.350;2023-07-24T03:16:31;21.40;79.80
47779;DHT22;33538;48.432;11.350;2023-07-24T03:18:58;21.40;80.40
47779;DHT22;33538;48.432;11.350;2023-07-24T03:21:25;21.30;81.10
47779;DHT22;33538;48.432;11.350;2023-07-24T03:23:51;21.30;82.20
47779;DHT22;33538;48.432;11.350;2023-07-24T03:26:19;21.30;82.00
47779;DHT22;33538;48.432;11.350;2023-07-24T03:28:46;21.20;81.40
47779;DHT22;33538;48.432;11.350;2023-07-24T03:31:13;21.30;81.00
47779;DHT22;33538;48.432;11.350;2023-07-24T03:33:40;21.20;80.80
47779;DHT22;33538;48.432;11.350;2023-07-24T03:36:07;21.10;81.40
47779;DHT22;33538;48.432;11.350;2023-07-24T03:38:34;21.10;81.60
47779;DHT22;33538;48.432;11.350;2023-07-24T03:41:00;21.20;80.90
47779;DHT22;33538;48.432;11.350;2023-07-24T03:43:28;21.20;81.50
47779;DHT22;33538;48.432;11.350;2023-07-24T03:45:55;21.10;82.80
47779;DHT22;33538;48.432;11.350;2023-07-24T03:48:22;21.10;82.60
47779;DHT22;33538;48.432;11.350;2023-07-24T03:50:49;21.10;82.30
47779;DHT22;33538;48.432;11.350;2023-07-24T03:53:16;21.20;82.30
47779;DHT22;33538;48.432;11.350;2023-07-24T03:55:43;21.20;82.30
47779;DHT22;33538;48.432;11.350;2023-07-24T03:58:10;21.20;83.00
47779;DHT22;33538;48.432;11.350;2023-07-24T04:00:38;21.10;82.80
47779;DHT22;33538;48.432;11.350;2023-07-24T04:03:05;21.10;83.20
47779;DHT22;33538;48.432;11.350;2023-07-24T04:05:32;21.00;84.20
47779;DHT22;33538;48.432;11.350;2023-07-24T04:08:00;21.00;84.20
47779;DHT22;33538;48.432;11.350;2023-07-24T04:10:27;21.10;83.20
47779;DHT22;33538;48.432;11.350;2023-07-24T04:12:54;21.10;82.90
47779;DHT22;33538;48.432;11.350;2023-07-24T04:15:20;21.10;83.30
47779;DHT22;33538;48.432;11.350;2023-07-24T04:17:49;21.10;83.90
47779;DHT22;33538;48.432;11.350;2023-07-24T04:20:15;21.10;84.50
47779;DHT22;33538;48.432;11.350;2023-07-24T04:22:42;21.10;84.40
47779;DHT22;33538;48.432;11.350;2023-07-24T04:25:09;21.10;84.30
47779;DHT22;33538;48.432;11.350;2023-07-24T04:27:36;21.10;84.60
47779;DHT22;33538;48.432;11.350;2023-07-24T04:30:03;21.10;84.50
47779;DHT22;33538;48.432;11.350;2023-07-24T04:32:30;21.10;84.30
47779;DHT22;33538;48.432;11.350;2023-07-24T04:34:58;21.10;85.20
47779;DHT22;33538;48.432;11.350;2023-07-24T04:37:25;21.10;84.90
47779;DHT22;33538;48.432;11.350;2023-07-24T04:39:52;21.10;85.40
47779;DHT22;33538;48.432;11.350;2023-07-24T04:42:18;21.10;85.30
47779;DHT22;33538;48.432;11.350;2023-07-24T04:44:45;21.10;85.40
47779;DHT22;33538;48.432;11.350;2023-07-24T04:47:12;21.10;86.00
47779;DHT22;33538;48.432;11.350;2023-07-24T04:49:39;21.10;85.90
47779;DHT22;33538;48.432;11.350;2023-07-24T04:52:07;21.10;85.80
47779;DHT22;33538;48.432;11.350;2023-07-24T04:54:34;21.10;86.40
47779;DHT22;33538;48.432;11.350;2023-07-24T04:57:01;21.10;83.90
47779;DHT22;33538;48.432;11.350;2023-07-24T04:59:28;21.10;85.70
47779;DHT22;33538;48.432;11.350;2023-07-24T05:01:54;21.10;87.50
47779;DHT22;33538;48.432;11.350;2023-07-24T05:04:21;21.00;86.90
47779;DHT22;33538;48.432;11.350;2023-07-24T05:06:48;21.00;87.40
47779;DHT22;33538;48.432;11.350;2023-07-24T05:09:16;21.00;88.00
47779;DHT22;33538;48.432;11.350;2023-07-24T05:11:43;21.10;88.40
47779;DHT22;33538;48.432;11.350;2023-07-24T05:14:10;21.10;87.80
47779;DHT22;33538;48.432;11.350;2023-07-24T05:16:36;21.10;88.00
47779;DHT22;33538;48.432;11.350;2023-07-24T05:19:03;21.10;88.00
47779;DHT22;33538;48.432;11.350;2023-07-24T05:21:35;21.10;87.10
47779;DHT22;33538;48.432;11.350;2023-07-24T05:24:03;21.10;87.60
47779;DHT22;33538;48.432;11.350;2023-07-24T05:26:31;21.10;87.80
47779;DHT22;33538;48.432;11.350;2023-07-24T05:28:58;21.10;88.00
47779;DHT22;33538;48.432;11.350;2023-07-24T05:31:25;21.10;87.90
47779;DHT22;33538;48.432;11.350;2023-07-24T05:33:52;21.10;88.50
47779;DHT22;33538;48.432;11.350;2023-07-24T05:36:18;21.20;88.20
47779;DHT22;33538;48.432;11.350;2023-07-24T05:38:45;21.10;89.00
47779;DHT22;33538;48.432;11.350;2023-07-24T05:41:12;21.10;88.70
47779;DHT22;33538;48.432;11.350;2023-07-24T05:43:40;21.10;88.10
47779;DHT22;33538;48.432;11.350;2023-07-24T05:46:07;21.20;89.00
47779;DHT22;33538;48.432;11.350;2023-07-24T05:48:34;21.20;89.10
47779;DHT22;33538;48.432;11.350;2023-07-24T05:51:00;21.20;89.10
47779;DHT22;33538;48.432;11.350;2023-07-24T05:53:27;21.20;88.90
47779;DHT22;33538;48.432;11.350;2023-07-24T05:55:58;21.20;89.70
47779;DHT22;33538;48.432;11.350;2023-07-24T05:58:26;21.20;88.60
47779;DHT22;33538;48.432;11.350;2023-07-24T06:00:54;21.20;89.40
47779;DHT22;33538;48.432;11.350;2023-07-24T06:03:21;21.20;89.20
47779;DHT22;33538;48.432;11.350;2023-07-24T06:05:51;21.30;89.80
47779;DHT22;33538;48.432;11.350;2023-07-24T06:08:18;21.30;90.00
47779;DHT22;33538;48.432;11.350;2023-07-24T06:10:46;21.30;90.30
47779;DHT22;33538;48.432;11.350;2023-07-24T06:13:13;21.30;90.20
47779;DHT22;33538;48.432;11.350;2023-07-24T06:15:40;21.30;90.30
47779;DHT22;33538;48.432;11.350;2023-07-24T06:18:08;21.30;90.20
47779;DHT22;33538;48.432;11.350;2023-07-24T06:20:35;21.30;90.10
47779;DHT22;33538;48.432;11.350;2023-07-24T06:23:02;21.30;90.30
47779;DHT22;33538;48.432;11.350;2023-07-24T06:25:29;21.30;90.40
47779;DHT22;33538;48.432;11.350;2023-07-24T06:27:55;21.20;90.50
47779;DHT22;33538;48.432;11.350;2023-07-24T06:30:22;21.30;90.40
47779;DHT22;33538;48.432;11.350;2023-07-24T06:32:49;21.30;90.40
47779;DHT22;33538;48.432;11.350;2023-07-24T06:35:17;21.30;90.80
47779;DHT22;33538;48.432;11.350;2023-07-24T06:37:44;21.30;90.40
47779;DHT22;33538;48.432;11.350;2023-07-24T06:40:11;21.40;90.40
47779;DHT22;33538;48.432;11.350;2023-07-24T06:42:38;21.40;90.60
47779;DHT22;33538;48.432;11.350;2023-07-24T06:45:06;21.40;90.60
47779;DHT22;33538;48.432;11.350;2023-07-24T06:47:34;21.40;91.20
47779;DHT22;33538;48.432;11.350;2023-07-24T06:50:01;21.40;90.70
47779;DHT22;33538;48.432;11.350;2023-07-24T06:52:29;21.40;90.70
47779;DHT22;33538;48.432;11.350;2023-07-24T06:54:56;21.40;90.60
47779;DHT22;33538;48.432;11.350;2023-07-24T06:57:22;21.40;90.40
47779;DHT22;33538;48.432;11.350;2023-07-24T06:59:49;21.40;90.40
47779;DHT22;33538;48.432;11.350;2023-07-24T07:02:18;21.40;90.20
47779;DHT22;33538;48.432;11.350;2023-07-24T07:04:45;21.40;90.60
47779;DHT22;33538;48.432;11.350;2023-07-24T07:07:12;21.50;91.60
47779;DHT22;33538;48.432;11.350;2023-07-24T07:09:40;21.50;92.00
47779;DHT22;33538;48.432;11.350;2023-07-24T07:12:07;21.50;91.90
47779;DHT22;33538;48.432;11.350;2023-07-24T07:14:34;21.50;91.60
47779;DHT22;33538;48.432;11.350;2023-07-24T07:17:01;21.50;92.40
47779;DHT22;33538;48.432;11.350;2023-07-24T07:19:28;21.50;93.40
47779;DHT22;33538;48.432;11.350;2023-07-24T07:21:55;21.40;94.50
47779;DHT22;33538;48.432;11.350;2023-07-24T07:24:21;21.30;95.30
47779;DHT22;33538;48.432;11.350;2023-07-24T07:26:50;21.40;95.50
47779;DHT22;33538;48.432;11.350;2023-07-24T07:29:16;21.30;95.60
47779;DHT22;33538;48.432;11.350;2023-07-24T07:31:43;21.30;95.50
47779;DHT22;33538;48.432;11.350;2023-07-24T07:34:10;21.30;95.40
47779;DHT22;33538;48.432;11.350;2023-07-24T07:36:37;21.30;95.40
47779;DHT22;33538;48.432;11.350;2023-07-24T07:39:03;21.30;95.50
47779;DHT22;33538;48.432;11.350;2023-07-24T07:41:30;21.30;95.40
47779;DHT22;33538;48.432;11.350;2023-07-24T07:43:58;21.30;95.20
47779;DHT22;33538;48.432;11.350;2023-07-24T07:46:25;21.30;95.60
47779;DHT22;33538;48.432;11.350;2023-07-24T07:48:52;21.20;95.50
47779;DHT22;33538;48.432;11.350;2023-07-24T07:51:19;21.30;94.70
47779;DHT22;33538;48.432;11.350;2023-07-24T07:53:46;21.30;94.80
47779;DHT22;33538;48.432;11.350;2023-07-24T07:56:13;21.30;95.00
47779;DHT22;33538;48.432;11.350;2023-07-24T07:58:40;21.20;95.30
47779;DHT22;33538;48.432;11.350;2023-07-24T08:01:08;21.20;95.30
47779;DHT22;33538;48.432;11.350;2023-07-24T08:03:35;21.20;95.40
47779;DHT22;33538;48.432;11.350;2023-07-24T08:06:01;21.20;95.60
47779;DHT22;33538;48.432;11.350;2023-07-24T08:08:28;21.20;95.90
47779;DHT22;33538;48.432;11.350;2023-07-24T08:10:55;21.10;95.70
47779;DHT22;33538;48.432;11.350;2023-07-24T08:13:22;21.10;96.00
47779;DHT22;33538;48.432;11.350;2023-07-24T08:15:49;21.10;96.30
47779;DHT22;33538;48.432;11.350;2023-07-24T08:18:17;21.10;96.10
47779;DHT22;33538;48.432;11.350;2023-07-24T08:20:44;21.10;96.00
47779;DHT22;33538;48.432;11.350;2023-07-24T08:23:11;21.10;96.20
47779;DHT22;33538;48.432;11.350;2023-07-24T08:25:38;21.10;96.40
47779;DHT22;33538;48.432;11.350;2023-07-24T08:28:05;21.10;96.30
47779;DHT22;33538;48.432;11.350;2023-07-24T08:30:32;21.10;96.00
47779;DHT22;33538;48.432;11.350;2023-07-24T08:33:00;21.10;96.00
47779;DHT22;33538;48.432;11.350;2023-07-24T08:35:28;21.10;95.70
47779;DHT22;33538;48.432;11.350;2023-07-24T08:37:55;21.10;95.50
47779;DHT22;33538;48.432;11.350;2023-07-24T08:40:21;21.10;95.40
47779;DHT22;33538;48.432;11.350;2023-07-24T08:42:49;21.10;95.60
47779;DHT22;33538;48.432;11.350;2023-07-24T08:45:16;21.10;95.40
47779;DHT22;33538;48.432;11.350;2023-07-24T08:47:44;21.10;95.20
47779;DHT22;33538;48.432;11.350;2023-07-24T08:50:12;21.10;95.60
47779;DHT22;33538;48.432;11.350;2023-07-24T08:52:41;21.10;95.70
47779;DHT22;33538;48.432;11.350;2023-07-24T08:55:08;21.10;95.90
47779;DHT22;33538;48.432;11.350;2023-07-24T08:57:35;21.10;96.20
47779;DHT22;33538;48.432;11.350;2023-07-24T09:00:02;21.10;96.20
47779;DHT22;33538;48.432;11.350;2023-07-24T09:02:29;21.20;97.10
47779;DHT22;33538;48.432;11.350;2023-07-24T09:04:56;21.20;97.30
47779;DHT22;33538;48.432;11.350;2023-07-24T09:07:23;21.20;96.80
47779;DHT22;33538;48.432;11.350;2023-07-24T09:09:51;21.20;96.00
47779;DHT22;33538;48.432;11.350;2023-07-24T09:12:18;21.30;95.90
47779;DHT22;33538;48.432;11.350;2023-07-24T09:14:45;21.30;95.40
47779;DHT22;33538;48.432;11.350;2023-07-24T09:17:11;21.30;94.70
47779;DHT22;33538;48.432;11.350;2023-07-24T09:19:38;21.30;94.20
47779;DHT22;33538;48.432;11.350;2023-07-24T09:22:10;21.40;94.20
47779;DHT22;33538;48.432;11.350;2023-07-24T09:24:37;21.40;94.10
47779;DHT22;33538;48.432;11.350;2023-07-24T09:27:06;21.40;93.70
47779;DHT22;33538;48.432;11.350;2023-07-24T09:29:34;21.40;93.00
47779;DHT22;33538;48.432;11.350;2023-07-24T09:32:01;21.50;92.20
47779;DHT22;33538;48.432;11.350;2023-07-24T09:34:28;21.50;91.80
47779;DHT22;33538;48.432;11.350;2023-07-24T09:36:55;21.50;91.90
47779;DHT22;33538;48.432;11.350;2023-07-24T09:39:25;21.50;92.10
47779;DHT22;33538;48.432;11.350;2023-07-24T09:41:52;21.50;92.20
47779;DHT22;33538;48.432;11.350;2023-07-24T09:44:20;21.50;92.70
47779;DHT22;33538;48.432;11.350;2023-07-24T09:46:47;21.60;92.90
47779;DHT22;33538;48.432;11.350;2023-07-24T09:49:26;21.60;92.90
47779;DHT22;33538;48.432;11.350;2023-07-24T09:51:59;21.60;93.10
47779;DHT22;33538;48.432;11.350;2023-07-24T09:54:31;21.60;93.30
47779;DHT22;33538;48.432;11.350;2023-07-24T09:56:59;21.60;93.90
47779;DHT22;33538;48.432;11.350;2023-07-24T09:59:47;21.60;94.40
47779;DHT22;33538;48.432;11.350;2023-07-24T10:02:15;21.60;94.30
47779;DHT22;33538;48.432;11.350;2023-07-24T10:04:43;21.60;94.20
47779;DHT22;33538;48.432;11.350;2023-07-24T10:07:10;21.60;94.50
47779;DHT22;33538;48.432;11.350;2023-07-24T10:09:38;21.60;94.60
47779;DHT22;33538;48.432;11.350;2023-07-24T10:12:06;21.60;94.20
47779;DHT22;33538;48.432;11.350;2023-07-24T10:14:34;21.60;93.80
47779;DHT22;33538;48.432;11.350;2023-07-24T10:17:02;21.60;93.60
47779;DHT22;33538;48.432;11.350;2023-07-24T10:19:35;21.60;93.40
47779;DHT22;33538;48.432;11.350;2023-07-24T10:22:02;21.70;93.20
47779;DHT22;33538;48.432;11.350;2023-07-24T10:24:29;21.70;93.10
47779;DHT22;33538;48.432;11.350;2023-07-24T10:27:07;21.70;93.00
47779;DHT22;33538;48.432;11.350;2023-07-24T10:29:35;21.70;93.00
47779;DHT22;33538;48.432;11.350;2023-07-24T10:32:04;21.70;93.20
47779;DHT22;33538;48.432;11.350;2023-07-24T10:34:37;21.70;93.10
47779;DHT22;33538;48.432;11.350;2023-07-24T10:37:07;21.70;93.10
47779;DHT22;33538;48.432;11.350;2023-07-24T10:39:37;21.70;93.00
47779;DHT22;33538;48.432;11.350;2023-07-24T10:42:06;21.70;92.80
47779;DHT22;33538;48.432;11.350;2023-07-24T10:44:33;21.70;92.70
47779;DHT22;33538;48.432;11.350;2023-07-24T10:47:00;21.70;92.50
47779;DHT22;33538;48.432;11.350;2023-07-24T10:49:28;21.70;92.60
47779;DHT22;33538;48.432;11.350;2023-07-24T10:51:56;21.70;92.40
47779;DHT22;33538;48.432;11.350;2023-07-24T10:54:22;21.70;92.30
47779;DHT22;33538;48.432;11.350;2023-07-24T10:56:49;21.70;92.20
47779;DHT22;33538;48.432;11.350;2023-07-24T10:59:17;21.70;92.50
47779;DHT22;33538;48.432;11.350;2023-07-24T11:01:44;21.70;91.90
47779;DHT22;33538;48.432;11.350;2023-07-24T11:04:11;21.70;91.90
47779;DHT22;33538;48.432;11.350;2023-07-24T11:06:40;21.80;91.90
47779;DHT22;33538;48.432;11.350;2023-07-24T11:09:06;21.80;91.90
47779;DHT22;33538;48.432;11.350;2023-07-24T11:11:34;21.80;91.90
47779;DHT22;33538;48.432;11.350;2023-07-24T11:14:03;21.80;91.90
47779;DHT22;33538;48.432;11.350;2023-07-24T11:16:30;21.80;91.90
47779;DHT22;33538;48.432;11.350;2023-07-24T11:18:57;21.80;91.90
47779;DHT22;33538;48.432;11.350;2023-07-24T11:21:24;21.80;91.70
47779;DHT22;33538;48.432;11.350;2023-07-24T11:23:53;21.80;91.70
47779;DHT22;33538;48.432;11.350;2023-07-24T11:26:21;21.80;91.80
47779;DHT22;33538;48.432;11.350;2023-07-24T11:28:49;21.80;91.80
47779;DHT22;33538;48.432;11.350;2023-07-24T11:31:16;21.90;91.80
47779;DHT22;33538;48.432;11.350;2023-07-24T11:33:43;21.90;91.80
47779;DHT22;33538;48.432;11.350;2023-07-24T11:36:11;21.90;91.80
47779;DHT22;33538;48.432;11.350;2023-07-24T11:38:38;21.90;91.80
47779;DHT22;33538;48.432;11.350;2023-07-24T11:41:08;22.00;91.90
47779;DHT22;33538;48.432;11.350;2023-07-24T11:43:35;22.00;92.00
47779;DHT22;33538;48.432;11.350;2023-07-24T11:46:02;22.00;92.00
47779;DHT22;33538;48.432;11.350;2023-07-24T11:48:29;22.00;92.50
47779;DHT22;33538;48.432;11.350;2023-07-24T11:50:56;22.00;92.20
47779;DHT22;33538;48.432;11.350;2023-07-24T11:53:24;22.00;92.30
47779;DHT22;33538;48.432;11.350;2023-07-24T11:55:52;22.10;92.40
47779;DHT22;33538;48.432;11.350;2023-07-24T11:58:21;22.10;92.40
47779;DHT22;33538;48.432;11.350;2023-07-24T12:00:49;22.10;92.50
47779;DHT22;33538;48.432;11.350;2023-07-24T12:03:19;22.10;92.50
47779;DHT22;33538;48.432;11.350;2023-07-24T12:05:47;22.10;92.50
47779;DHT22;33538;48.432;11.350;2023-07-24T12:08:17;22.10;92.60
47779;DHT22;33538;48.432;11.350;2023-07-24T12:10:43;22.10;92.50
47779;DHT22;33538;48.432;11.350;2023-07-24T12:13:10;22.10;92.60
47779;DHT22;33538;48.432;11.350;2023-07-24T12:15:39;22.10;92.50
47779;DHT22;33538;48.432;11.350;2023-07-24T12:18:06;22.10;92.50
47779;DHT22;33538;48.432;11.350;2023-07-24T12:20:34;22.10;93.00
47779;DHT22;33538;48.432;11.350;2023-07-24T12:23:01;22.10;92.40
47779;DHT22;33538;48.432;11.350;2023-07-24T12:25:28;22.10;92.60
47779;DHT22;33538;48.432;11.350;2023-07-24T12:27:54;22.10;94.00
47779;DHT22;33538;48.432;11.350;2023-07-24T12:30:21;21.90;97.70
47779;DHT22;33538;48.432;11.350;2023-07-24T12:32:50;21.90;97.90
47779;DHT22;33538;48.432;11.350;2023-07-24T12:35:17;22.00;99.00
47779;DHT22;33538;48.432;11.350;2023-07-24T12:37:44;22.00;99.90
47779;DHT22;33538;48.432;11.350;2023-07-24T12:40:11;22.00;99.90
47779;DHT22;33538;48.432;11.350;2023-07-24T12:42:38;21.90;99.90
47779;DHT22;33538;48.432;11.350;2023-07-24T12:45:06;21.90;99.90
47779;DHT22;33538;48.432;11.350;2023-07-24T12:47:33;21.80;99.90
47779;DHT22;33538;48.432;11.350;2023-07-24T12:50:01;21.80;99.90
47779;DHT22;33538;48.432;11.350;2023-07-24T12:52:31;21.80;99.90
47779;DHT22;33538;48.432;11.350;2023-07-24T12:54:58;21.80;99.90
47779;DHT22;33538;48.432;11.350;2023-07-24T12:57:28;21.80;99.90
47779;DHT22;33538;48.432;11.350;2023-07-24T12:59:55;21.80;99.90
47779;DHT22;33538;48.432;11.350;2023-07-24T13:02:22;21.80;99.90
47779;DHT22;33538;48.432;11.350;2023-07-24T13:04:49;21.70;99.90
47779;DHT22;33538;48.432;11.350;2023-07-24T13:07:17;21.70;99.90
47779;DHT22;33538;48.432;11.350;2023-07-24T13:09:44;21.70;99.90
47779;DHT22;33538;48.432;11.350;2023-07-24T13:12:11;21.70;99.90
47779;DHT22;33538;48.432;11.350;2023-07-24T13:14:37;21.70;99.90
47779;DHT22;33538;48.432;11.350;2023-07-24T13:17:08;21.70;99.90
47779;DHT22;33538;48.432;11.350;2023-07-24T13:19:34;21.70;99.90
47779;DHT22;33538;48.432;11.350;2023-07-24T13:22:01;21.70;99.90
47779;DHT22;33538;48.432;11.350;2023-07-24T13:24:29;21.70;99.90
47779;DHT22;33538;48.432;11.350;2023-07-24T13:26:56;21.80;99.90
47779;DHT22;33538;48.432;11.350;2023-07-24T13:29:23;21.80;99.90
47779;DHT22;33538;48.432;11.350;2023-07-24T13:31:52;21.80;99.90
47779;DHT22;33538;48.432;11.350;2023-07-24T13:34:19;21.80;99.90
47779;DHT22;33538;48.432;11.350;2023-07-24T13:36:46;21.80;99.90
47779;DHT22;33538;48.432;11.350;2023-07-24T13:39:13;21.80;99.90
47779;DHT22;33538;48.432;11.350;2023-07-24T13:41:41;21.80;99.90
47779;DHT22;33538;48.432;11.350;2023-07-24T13:44:09;21.80;99.90
47779;DHT22;33538;48.432;11.350;2023-07-24T13:46:36;21.80;99.90
47779;DHT22;33538;48.432;11.350;2023-07-24T13:49:06;21.80;99.90
47779;DHT22;33538;48.432;11.350;2023-07-24T13:51:33;21.80;99.90
47779;DHT22;33538;48.432;11.350;2023-07-24T13:54:00;21.90;99.90
47779;DHT22;33538;48.432;11.350;2023-07-24T13:56:29;21.90;99.90
47779;DHT22;33538;48.432;11.350;2023-07-24T13:58:57;21.90;99.90
47779;DHT22;33538;48.432;11.350;2023-07-24T14:01:24;21.90;99.20
47779;DHT22;33538;48.432;11.350;2023-07-24T14:03:51;21.90;98.60
47779;DHT22;33538;48.432;11.350;2023-07-24T14:06:18;22.00;98.10
47779;DHT22;33538;48.432;11.350;2023-07-24T14:08:44;22.00;97.60
47779;DHT22;33538;48.432;11.350;2023-07-24T14:11:11;22.00;97.20
47779;DHT22;33538;48.432;11.350;2023-07-24T14:13:38;22.00;96.90
47779;DHT22;33538;48.432;11.350;2023-07-24T14:16:06;22.00;96.60
47779;DHT22;33538;48.432;11.350;2023-07-24T14:18:33;22.10;96.30
47779;DHT22;33538;48.432;11.350;2023-07-24T14:21:01;22.10;95.90
47779;DHT22;33538;48.432;11.350;2023-07-24T14:23:27;22.10;95.70
47779;DHT22;33538;48.432;11.350;2023-07-24T14:25:54;22.10;95.40
47779;DHT22;33538;48.432;11.350;2023-07-24T14:28:21;22.10;95.20
47779;DHT22;33538;48.432;11.350;2023-07-24T14:30:48;22.10;95.00
47779;DHT22;33538;48.432;11.350;2023-07-24T14:33:16;22.10;94.90
47779;DHT22;33538;48.432;11.350;2023-07-24T14:35:43;22.20;94.80
47779;DHT22;33538;48.432;11.350;2023-07-24T14:38:10;22.20;94.70
47779;DHT22;33538;48.432;11.350;2023-07-24T14:40:37;22.20;94.60
47779;DHT22;33538;48.432;11.350;2023-07-24T14:43:03;22.20;94.70
47779;DHT22;33538;48.432;11.350;2023-07-24T14:45:33;22.20;94.70
47779;DHT22;33538;48.432;11.350;2023-07-24T14:48:00;22.30;94.70
47779;DHT22;33538;48.432;11.350;2023-07-24T14:50:28;22.30;94.70
47779;DHT22;33538;48.432;11.350;2023-07-24T14:52:55;22.30;95.10
47779;DHT22;33538;48.432;11.350;2023-07-24T14:55:22;22.30;94.70
47779;DHT22;33538;48.432;11.350;2023-07-24T14:57:49;22.30;94.70
47779;DHT22;33538;48.432;11.350;2023-07-24T15:00:16;22.30;94.50
47779;DHT22;33538;48.432;11.350;2023-07-24T15:02:43;22.30;94.50
47779;DHT22;33538;48.432;11.350;2023-07-24T15:05:10;22.30;94.60
47779;DHT22;33538;48.432;11.350;2023-07-24T15:07:38;22.40;94.60
47779;DHT22;33538;48.432;11.350;2023-07-24T15:10:06;22.40;94.60
47779;DHT22;33538;48.432;11.350;2023-07-24T15:12:33;22.40;94.50
47779;DHT22;33538;48.432;11.350;2023-07-24T15:15:00;22.40;94.60
47779;DHT22;33538;48.432;11.350;2023-07-24T15:17:26;22.40;94.60